Time;durP1;ratioP1;P1;durP2;ratioP2;P2;SDS_P1;SDS_P2;PMS_P1;PMS_P2;Temp;Humidity;BMP_temperature;BMP_pressure;BME280_temperature;BME280_humidity;BME280_pressure;Samples;Min_cycle;Max_cycle;Signal;HPM_P1;HPM_P2
2022/03/09 00:01:49;;;;;;;;;;;;;;;29.76;18.12;100851.00;5087253;28;1879;-39
2022/03/09 00:04:15;;;;;;;;;;;;;;;30.24;17.74;100851.28;5086399;28;1185;-39
2022/03/09 00:06:40;;;;;;;;;;;;;;;30.10;18.01;100843.06;5072321;28;1441;-38
2022/03/09 00:09:05;;;;;;;;;;;;;;;30.30;17.62;100845.03;5066819;28;1330;-39
2022/03/09 00:11:31;;;;;;;;;;;;;;;30.63;17.27;100851.63;5066631;28;1586;-38
2022/03/09 00:13:56;;;;;;;;;;;;;;;30.52;17.44;100853.06;5052183;28;1233;-39
2022/03/09 00:16:21;;;;;;;;;;;;;;;30.53;17.58;100847.41;5070677;28;1270;-39
2022/03/09 00:18:47;;;;;;;;;;;;;;;30.15;18.03;100856.00;5066196;28;1353;-38
2022/03/09 00:21:12;;;;;;;;;;;;;;;29.98;18.31;100856.34;5067599;28;1910;-38
2022/03/09 00:23:37;;;;;;;;;;;;;;;30.53;17.75;100852.84;5068740;28;1250;-40
2022/03/09 00:26:03;;;;;;;;;;;;;;;30.08;17.89;100855.16;5061890;28;1304;-37
2022/03/09 00:28:28;;;;;;;;;;;;;;;30.08;18.02;100858.69;5063283;28;1301;-37
2022/03/09 00:30:53;;;;;;;;;;;;;;;29.94;18.36;100857.78;5047850;28;1178;-39
2022/03/09 00:33:19;;;;;;;;;;;;;;;29.01;19.22;100849.53;5068014;28;1257;-41
2022/03/09 00:35:44;;;;;;;;;;;;;;;29.18;19.18;100851.97;5068103;28;1320;-39
2022/03/09 00:38:10;;;;;;;;;;;;;;;29.66;18.87;100861.38;5061072;28;1135;-39
2022/03/09 00:40:35;;;;;;;;;;;;;;;30.05;18.30;100859.09;5067563;28;1332;-40
2022/03/09 00:43:00;;;;;;;;;;;;;;;30.09;18.27;100860.38;5067717;28;1902;-38
2022/03/09 00:45:25;;;;;;;;;;;;;;;30.38;17.94;100844.88;5069018;28;1288;-39
2022/03/09 00:47:51;;;;;;;;;;;;;;;30.71;17.71;100845.19;5062057;28;1031;-39
2022/03/09 00:50:16;;;;;;;;;;;;;;;30.41;17.72;100839.03;5073678;28;1419;-39
2022/03/09 00:52:41;;;;;;;;;;;;;;;30.39;18.08;100835.69;5063039;28;1328;-42
2022/03/09 00:55:07;;;;;;;;;;;;;;;30.23;17.99;100842.28;5076438;28;873;-39
2022/03/09 00:57:32;;;;;;;;;;;;;;;30.15;18.31;100832.44;5076658;28;897;-41
2022/03/09 00:59:57;;;;;;;;;;;;;;;30.62;17.69;100831.78;5076677;28;848;-39
2022/03/09 01:02:23;;;;;;;;;;;;;;;30.18;18.09;100825.75;5089606;28;2264;-39
2022/03/09 01:04:48;;;;;;;;;;;;;;;30.16;18.27;100831.38;5095583;28;849;-41
2022/03/09 01:07:13;;;;;;;;;;;;;;;29.12;19.31;100820.25;5092135;28;1069;-40
2022/03/09 01:09:38;;;;;;;;;;;;;;;29.28;19.08;100819.16;5096520;28;1095;-40
2022/03/09 01:12:04;;;;;;;;;;;;;;;29.71;18.85;100826.38;5069764;28;901;-41
2022/03/09 01:14:29;;;;;;;;;;;;;;;30.06;18.24;100820.91;5061473;28;866;-40
2022/03/09 01:16:54;;;;;;;;;;;;;;;30.09;18.16;100833.25;5087322;28;821;-38
2022/03/09 01:19:20;;;;;;;;;;;;;;;30.39;17.85;100815.84;5095181;28;964;-40
2022/03/09 01:21:45;;;;;;;;;;;;;;;30.74;17.50;100823.03;5096059;28;1968;-39
2022/03/09 01:24:10;;;;;;;;;;;;;;;30.44;17.65;100821.50;5095943;28;813;-40
2022/03/09 01:26:36;;;;;;;;;;;;;;;30.45;17.79;100820.47;5095608;28;832;-41
2022/03/09 01:29:01;;;;;;;;;;;;;;;30.48;17.88;100828.19;5095992;28;809;-40
2022/03/09 01:31:26;;;;;;;;;;;;;;;30.65;17.58;100820.53;5088306;28;837;-43
2022/03/09 01:33:51;;;;;;;;;;;;;;;30.29;17.89;100824.38;5095616;28;897;-40
2022/03/09 01:36:17;;;;;;;;;;;;;;;30.12;18.19;100832.84;5095950;28;777;-41
2022/03/09 01:38:42;;;;;;;;;;;;;;;29.99;18.25;100827.34;5095724;28;794;-40
2022/03/09 01:41:07;;;;;;;;;;;;;;;29.79;18.75;100831.63;5095594;28;1969;-40
2022/03/09 01:43:33;;;;;;;;;;;;;;;29.45;18.91;100825.09;5087970;28;899;-41
2022/03/09 01:45:58;;;;;;;;;;;;;;;28.95;19.47;100834.03;5088736;28;847;-38
2022/03/09 01:48:23;;;;;;;;;;;;;;;28.52;20.09;100826.72;5075916;28;853;-39
2022/03/09 01:50:49;;;;;;;;;;;;;;;28.84;19.72;100825.41;5076233;28;940;-41
2022/03/09 01:53:14;;;;;;;;;;;;;;;29.41;19.20;100823.84;5075917;28;825;-40
2022/03/09 01:55:39;;;;;;;;;;;;;;;29.56;18.84;100823.75;5075688;28;939;-39
2022/03/09 01:58:05;;;;;;;;;;;;;;;29.83;18.58;100821.19;5084110;28;853;-39
2022/03/09 02:00:30;;;;;;;;;;;;;;;30.28;17.95;100815.41;5076646;28;777;-38
2022/03/09 02:02:55;;;;;;;;;;;;;;;30.62;17.73;100822.81;5092524;28;1898;-39
2022/03/09 02:05:21;;;;;;;;;;;;;;;30.31;17.75;100825.84;5077529;28;794;-40
2022/03/09 02:10:30;;;;;;;;;;;;;;;30.59;17.68;100818.63;5081312;28;760;-39
2022/03/09 02:12:55;;;;;;;;;;;;;;;30.61;17.83;100819.28;5099338;28;793;-38
2022/03/09 02:15:20;;;;;;;;;;;;;;;30.14;18.27;100819.91;5097416;28;889;-38
2022/03/09 02:17:46;;;;;;;;;;;;;;;30.08;18.28;100828.03;5079430;28;986;-39
2022/03/09 02:20:11;;;;;;;;;;;;;;;29.78;18.63;100834.56;5079657;28;742;-39
2022/03/09 02:22:37;;;;;;;;;;;;;;;29.50;18.90;100830.78;5061045;28;1907;-40
2022/03/09 02:25:06;;;;;;;;;;;;;;;29.24;18.80;100829.56;5098625;28;1084;-41
2022/03/09 02:27:31;;;;;;;;;;;;;;;29.16;19.16;100835.09;5082965;28;1475;-41
2022/03/09 02:29:57;;;;;;;;;;;;;;;28.76;19.73;100839.06;5092340;28;806;-40
2022/03/09 02:32:22;;;;;;;;;;;;;;;28.49;19.93;100830.66;5084239;28;897;-39
2022/03/09 02:34:47;;;;;;;;;;;;;;;28.83;19.86;100829.13;5097364;28;861;-40
2022/03/09 02:37:13;;;;;;;;;;;;;;;29.44;18.91;100831.56;5098557;28;747;-40
2022/03/09 02:39:38;;;;;;;;;;;;;;;29.43;18.98;100829.88;5098207;28;958;-38
2022/03/09 02:42:03;;;;;;;;;;;;;;;29.71;18.77;100829.09;5098482;28;2262;-42
2022/03/09 02:44:29;;;;;;;;;;;;;;;30.11;18.19;100828.47;5098499;28;896;-38
2022/03/09 02:46:54;;;;;;;;;;;;;;;30.42;17.87;100815.44;5091638;28;889;-38
2022/03/09 02:49:19;;;;;;;;;;;;;;;30.66;17.41;100822.19;5088530;28;887;-39
2022/03/09 02:51:45;;;;;;;;;;;;;;;30.37;17.88;100815.22;5098403;28;916;-44
2022/03/09 02:54:10;;;;;;;;;;;;;;;30.38;18.04;100819.63;5098439;28;832;-41
2022/03/09 02:56:35;;;;;;;;;;;;;;;30.49;17.69;100775.59;5098122;28;857;-39
2022/03/09 02:59:01;;;;;;;;;;;;;;;30.92;17.54;100817.03;5098230;28;766;-43
2022/03/09 03:01:26;;;;;;;;;;;;;;;30.17;18.22;100810.53;5086055;28;1957;-43
2022/03/09 03:03:51;;;;;;;;;;;;;;;29.93;18.36;100816.25;5084018;28;932;-39
2022/03/09 03:06:17;;;;;;;;;;;;;;;29.58;18.87;100817.06;5097734;28;841;-39
2022/03/09 03:08:42;;;;;;;;;;;;;;;29.31;19.17;100814.16;5097836;28;1052;-40
2022/03/09 03:11:08;;;;;;;;;;;;;;;29.00;19.14;100812.66;5097826;28;767;-39
2022/03/09 03:13:34;;;;;;;;;;;;;;;28.97;19.29;100823.88;5092953;28;778;-39
2022/03/09 03:15:59;;;;;;;;;;;;;;;28.93;19.52;100819.84;5091283;28;876;-41
2022/03/09 03:18:24;;;;;;;;;;;;;;;28.58;19.84;100832.22;5078383;28;1260;-40
2022/03/09 03:20:54;;;;;;;;;;;;;;;29.19;19.47;100834.72;5077785;28;785;-38
2022/03/09 03:23:20;;;;;;;;;;;;;;;29.75;18.87;100835.78;5078018;28;1918;-40
2022/03/09 03:25:45;;;;;;;;;;;;;;;29.68;18.87;100834.88;5081434;28;877;-43
2022/03/09 03:28:10;;;;;;;;;;;;;;;29.79;18.55;100837.06;5097639;28;819;-39
2022/03/09 03:30:36;;;;;;;;;;;;;;;30.17;18.26;100834.94;5092904;28;853;-39
2022/03/09 03:33:01;;;;;;;;;;;;;;;30.41;18.16;100828.16;5088357;28;754;-41
2022/03/09 03:35:26;;;;;;;;;;;;;;;30.26;17.57;100822.91;5097297;28;940;-39
2022/03/09 03:37:52;;;;;;;;;;;;;;;30.12;17.87;100830.13;5097275;28;842;-40
2022/03/09 03:40:17;;;;;;;;;;;;;;;30.60;17.73;100831.16;5091910;28;893;-41
2022/03/09 03:42:42;;;;;;;;;;;;;;;30.49;17.60;100826.31;5097514;28;1963;-40
2022/03/09 03:45:08;;;;;;;;;;;;;;;30.06;18.01;100826.34;5097274;28;1046;-38
2022/03/09 03:47:33;;;;;;;;;;;;;;;29.75;18.16;100813.22;5090366;28;1462;-39
2022/03/09 03:49:58;;;;;;;;;;;;;;;29.62;18.65;100827.53;5097230;28;808;-38
2022/03/09 03:52:23;;;;;;;;;;;;;;;29.62;18.71;100830.25;5094762;28;967;-38
2022/03/09 03:54:49;;;;;;;;;;;;;;;30.04;18.28;100831.16;5096712;28;846;-40
2022/03/09 03:57:14;;;;;;;;;;;;;;;30.59;17.67;100829.50;5097050;28;885;-38
2022/03/09 03:59:39;;;;;;;;;;;;;;;30.15;18.10;100837.84;5097123;28;853;-39
2022/03/09 04:02:05;;;;;;;;;;;;;;;30.26;17.96;100839.19;5084247;28;1897;-39
2022/03/09 04:04:30;;;;;;;;;;;;;;;30.46;17.90;100843.03;5076386;28;774;-40
2022/03/09 04:06:55;;;;;;;;;;;;;;;30.13;17.72;100839.13;5066820;28;1231;-41
2022/03/09 04:09:21;;;;;;;;;;;;;;;29.93;17.68;100835.25;5077177;28;848;-41
2022/03/09 04:11:46;;;;;;;;;;;;;;;30.40;17.77;100840.06;5073307;28;1504;-40
2022/03/09 04:14:11;;;;;;;;;;;;;;;30.63;17.45;100838.06;5078995;28;844;-41
2022/03/09 04:16:36;;;;;;;;;;;;;;;30.24;17.85;100835.84;5076024;28;880;-40
2022/03/09 04:19:02;;;;;;;;;;;;;;;29.94;18.70;100836.94;5096273;28;1409;-40
2022/03/09 04:21:28;;;;;;;;;;;;;;;29.13;17.99;100840.91;5096185;28;1964;-42
2022/03/09 04:23:53;;;;;;;;;;;;;;;28.95;18.48;100840.31;5078423;28;745;-37
2022/03/09 04:26:18;;;;;;;;;;;;;;;28.47;18.81;100833.56;5083772;28;1319;-38
2022/03/09 04:28:43;;;;;;;;;;;;;;;28.05;18.96;100837.78;5096076;28;893;-38
2022/03/09 04:31:09;;;;;;;;;;;;;;;28.13;19.26;100834.97;5076069;28;1202;-39
2022/03/09 04:33:34;;;;;;;;;;;;;;;28.13;19.28;100843.06;5076453;28;865;-38
2022/03/09 04:35:59;;;;;;;;;;;;;;;28.80;18.54;100850.34;5096176;28;881;-38
2022/03/09 04:38:27;;;;;;;;;;;;;;;29.52;17.92;100850.41;5096036;28;865;-38
2022/03/09 04:40:52;;;;;;;;;;;;;;;29.31;18.13;100845.84;5090614;28;865;-38
2022/03/09 04:43:17;;;;;;;;;;;;;;;29.45;17.80;100854.91;5086420;28;1959;-39
2022/03/09 04:45:43;;;;;;;;;;;;;;;29.70;17.73;100849.94;5091576;28;927;-39
2022/03/09 04:48:08;;;;;;;;;;;;;;;29.98;17.18;100848.19;5074058;28;1258;-38
2022/03/09 04:50:33;;;;;;;;;;;;;;;29.78;17.01;100842.69;5074915;28;830;-39
2022/03/09 04:52:59;;;;;;;;;;;;;;;28.82;18.29;100840.16;5082652;28;765;-38
2022/03/09 04:55:24;;;;;;;;;;;;;;;28.93;18.52;100841.50;5085791;28;760;-38
2022/03/09 04:57:49;;;;;;;;;;;;;;;29.84;17.81;100850.00;5095208;28;897;-37
2022/03/09 05:00:15;;;;;;;;;;;;;;;29.66;17.65;100850.53;5095623;28;861;-38
2022/03/09 05:02:40;;;;;;;;;;;;;;;29.42;17.68;100841.75;5092500;28;1968;-37
2022/03/09 05:05:06;;;;;;;;;;;;;;;29.30;17.89;100841.47;5096196;28;749;-43
2022/03/09 05:07:31;;;;;;;;;;;;;;;29.27;17.97;100855.41;5075134;28;1119;-42
2022/03/09 05:09:56;;;;;;;;;;;;;;;29.43;17.71;100846.97;5095756;28;798;-43
2022/03/09 05:12:22;;;;;;;;;;;;;;;29.66;17.46;100848.63;5096219;28;813;-43
2022/03/09 05:14:47;;;;;;;;;;;;;;;29.89;17.26;100852.13;5095827;28;810;-43
2022/03/09 05:17:12;;;;;;;;;;;;;;;30.05;17.04;100851.78;5093310;28;963;-43
2022/03/09 05:19:38;;;;;;;;;;;;;;;30.16;16.82;100861.22;5096062;28;750;-44
2022/03/09 05:22:03;;;;;;;;;;;;;;;30.33;16.65;100866.34;5090796;28;1890;-42
2022/03/09 05:24:28;;;;;;;;;;;;;;;30.44;16.49;100859.50;5095954;28;852;-40
2022/03/09 05:26:54;;;;;;;;;;;;;;;29.43;17.27;100865.97;5069730;28;799;-40
2022/03/09 05:29:19;;;;;;;;;;;;;;;28.79;17.79;100870.34;5076521;28;834;-44
2022/03/09 05:31:45;;;;;;;;;;;;;;;29.80;17.32;100884.81;5077726;28;830;-41
2022/03/09 05:34:11;;;;;;;;;;;;;;;30.04;16.92;100887.25;5076812;28;936;-42
2022/03/09 05:36:36;;;;;;;;;;;;;;;29.87;17.01;100892.16;5076055;28;803;-41
2022/03/09 05:39:02;;;;;;;;;;;;;;;29.48;17.37;100891.66;5076245;28;757;-40
2022/03/09 05:41:27;;;;;;;;;;;;;;;28.51;18.52;100892.72;5076550;28;1902;-41
2022/03/09 05:43:53;;;;;;;;;;;;;;;28.65;18.40;100882.88;5076318;28;801;-40
2022/03/09 05:46:18;;;;;;;;;;;;;;;28.71;18.26;100892.94;5064074;28;759;-41
2022/03/09 05:48:43;;;;;;;;;;;;;;;28.72;18.05;100887.34;5099989;28;797;-42
2022/03/09 05:51:08;;;;;;;;;;;;;;;28.70;18.11;100893.97;5099144;28;797;-42
2022/03/09 05:53:34;;;;;;;;;;;;;;;28.80;17.97;100894.50;5099282;28;1461;-50
2022/03/09 05:55:59;;;;;;;;;;;;;;;28.88;17.99;100884.59;5099316;28;845;-46
2022/03/09 05:58:24;;;;;;;;;;;;;;;29.07;17.75;100883.16;5097636;28;845;-45
2022/03/09 06:00:50;;;;;;;;;;;;;;;29.28;17.60;100900.44;5093927;28;812;-43
2022/03/09 06:03:15;;;;;;;;;;;;;;;29.47;17.53;100896.22;5079998;28;1971;-42
2022/03/09 06:05:40;;;;;;;;;;;;;;;29.51;17.16;100899.38;5079862;28;896;-41
2022/03/09 06:08:06;;;;;;;;;;;;;;;29.66;17.01;100902.84;5079601;28;993;-47
2022/03/09 06:10:31;;;;;;;;;;;;;;;29.72;17.07;100895.81;5079419;28;806;-40
2022/03/09 06:12:56;;;;;;;;;;;;;;;29.78;17.01;100897.72;5089553;28;852;-42
2022/03/09 06:15:22;;;;;;;;;;;;;;;29.84;16.77;100898.81;5097236;28;941;-43
2022/03/09 06:17:48;;;;;;;;;;;;;;;29.85;16.92;100896.94;5080043;28;950;-43
2022/03/09 06:20:16;;;;;;;;;;;;;;;29.77;16.87;100903.34;5065779;28;1036;-42
2022/03/09 06:22:42;;;;;;;;;;;;;;;29.72;16.79;100900.38;5079420;28;1910;-45
2022/03/09 06:25:07;;;;;;;;;;;;;;;30.01;16.74;100899.34;5091745;28;777;-46
2022/03/09 06:27:42;;;;;;;;;;;;;;;29.85;16.67;100905.06;5098588;28;819;-44
2022/03/09 06:30:08;;;;;;;;;;;;;;;29.84;16.68;100906.13;5073132;28;825;-41
2022/03/09 06:32:34;;;;;;;;;;;;;;;29.93;16.74;100903.03;5091214;28;994;-43
2022/03/09 06:35:00;;;;;;;;;;;;;;;30.08;16.54;100906.69;5099013;28;836;-42
2022/03/09 06:37:25;;;;;;;;;;;;;;;30.18;16.26;100908.00;5091058;28;905;-40
2022/03/09 06:39:50;;;;;;;;;;;;;;;30.29;16.52;100908.50;5098098;28;814;-39
2022/03/09 06:42:16;;;;;;;;;;;;;;;30.40;16.31;100905.22;5098738;28;1902;-48
2022/03/09 06:44:41;;;;;;;;;;;;;;;30.51;16.20;100911.09;5098228;28;891;-42
2022/03/09 06:47:06;;;;;;;;;;;;;;;29.94;16.30;100907.44;5093995;28;897;-42
2022/03/09 06:49:32;;;;;;;;;;;;;;;29.07;17.01;100910.22;5093452;28;903;-42
2022/03/09 06:51:57;;;;;;;;;;;;;;;30.05;16.83;100910.63;5079096;28;814;-39
2022/03/09 06:54:23;;;;;;;;;;;;;;;29.98;16.58;100910.59;5078763;28;917;-41
2022/03/09 06:56:51;;;;;;;;;;;;;;;29.75;16.88;100906.25;5078518;28;790;-42
2022/03/09 06:59:16;;;;;;;;;;;;;;;29.64;17.00;100904.94;5078825;28;914;-46
2022/03/09 07:01:42;;;;;;;;;;;;;;;29.56;17.07;100905.88;5076420;28;1959;-43
2022/03/09 07:04:07;;;;;;;;;;;;;;;29.63;16.95;100915.97;5094651;28;928;-46
2022/03/09 07:06:32;;;;;;;;;;;;;;;29.68;16.77;100916.22;5097581;28;1044;-41
2022/03/09 07:08:57;;;;;;;;;;;;;;;29.71;16.61;100913.13;5098261;28;873;-42
2022/03/09 07:11:23;;;;;;;;;;;;;;;29.81;16.69;100910.88;5097993;28;837;-45
2022/03/09 07:13:48;;;;;;;;;;;;;;;29.89;16.62;100909.06;5097543;28;816;-44
2022/03/09 07:16:13;;;;;;;;;;;;;;;30.01;16.66;100909.38;5083775;28;849;-42
2022/03/09 07:18:39;;;;;;;;;;;;;;;30.06;16.55;100910.41;5078506;28;837;-40
2022/03/09 07:21:04;;;;;;;;;;;;;;;30.11;16.30;100906.28;5077847;28;818;-39
2022/03/09 07:23:29;;;;;;;;;;;;;;;30.17;16.20;100914.47;5078112;28;2005;-39
2022/03/09 07:25:55;;;;;;;;;;;;;;;30.27;16.27;100913.28;5078688;28;786;-40
2022/03/09 07:28:20;;;;;;;;;;;;;;;29.67;16.35;100914.53;5081455;28;842;-44
2022/03/09 07:30:46;;;;;;;;;;;;;;;29.81;16.63;100915.50;5092854;28;857;-44
2022/03/09 07:33:12;;;;;;;;;;;;;;;30.36;16.06;100906.66;5097206;28;848;-40
2022/03/09 07:35:37;;;;;;;;;;;;;;;30.71;15.76;100902.19;5097314;28;769;-40
2022/03/09 07:38:03;;;;;;;;;;;;;;;30.60;15.87;100912.59;5097662;28;790;-42
2022/03/09 07:40:29;;;;;;;;;;;;;;;30.04;16.37;100909.81;5092303;28;805;-40
2022/03/09 07:42:54;;;;;;;;;;;;;;;29.84;16.65;100909.66;5095569;28;1905;-43
2022/03/09 07:45:19;;;;;;;;;;;;;;;29.91;16.25;100905.13;5096248;28;733;-43
2022/03/09 07:47:44;;;;;;;;;;;;;;;30.06;16.28;100902.28;5075965;28;1022;-40
2022/03/09 07:50:10;;;;;;;;;;;;;;;29.52;16.58;100906.47;5096908;28;905;-42
2022/03/09 07:52:35;;;;;;;;;;;;;;;29.23;16.68;100900.19;5078273;28;889;-41
2022/03/09 07:55:00;;;;;;;;;;;;;;;30.45;15.97;100901.06;5094356;28;883;-40
2022/03/09 07:57:26;;;;;;;;;;;;;;;30.95;15.45;100894.56;5085591;28;1176;-41
2022/03/09 07:59:51;;;;;;;;;;;;;;;31.01;15.26;100899.16;5077580;28;822;-41
2022/03/09 08:02:16;;;;;;;;;;;;;;;31.05;15.28;100892.28;5076231;28;1909;-42
2022/03/09 08:04:42;;;;;;;;;;;;;;;30.49;15.84;100891.47;5077577;28;870;-42
2022/03/09 08:07:07;;;;;;;;;;;;;;;30.18;15.91;100885.44;5079361;28;1094;-38
2022/03/09 08:09:32;;;;;;;;;;;;;;;29.59;16.23;100880.28;5096499;28;917;-40
2022/03/09 08:11:57;;;;;;;;;;;;;;;30.26;16.10;100881.78;5097186;28;810;-41
2022/03/09 08:14:23;;;;;;;;;;;;;;;30.60;15.71;100882.72;5097070;28;975;-43
2022/03/09 08:16:48;;;;;;;;;;;;;;;30.84;15.59;100890.56;5086230;28;858;-41
2022/03/09 08:19:14;;;;;;;;;;;;;;;30.90;15.00;100895.16;5092742;28;818;-40
2022/03/09 08:21:39;;;;;;;;;;;;;;;29.51;16.53;100893.97;5096806;28;1965;-41
2022/03/09 08:24:05;;;;;;;;;;;;;;;29.31;16.62;100895.44;5096404;28;814;-43
2022/03/09 08:26:31;;;;;;;;;;;;;;;30.45;15.96;100891.03;5096854;28;892;-40
2022/03/09 08:28:56;;;;;;;;;;;;;;;30.71;15.63;100891.34;5096704;28;781;-43
2022/03/09 08:31:21;;;;;;;;;;;;;;;30.96;15.49;100890.81;5084149;28;846;-45
2022/03/09 08:33:46;;;;;;;;;;;;;;;30.50;15.45;100891.25;5094556;28;838;-42
2022/03/09 08:36:12;;;;;;;;;;;;;;;29.37;16.57;100898.41;5096308;28;801;-42
2022/03/09 08:38:37;;;;;;;;;;;;;;;29.07;16.96;100893.97;5089764;28;1000;-40
2022/03/09 08:41:03;;;;;;;;;;;;;;;28.85;16.85;100892.06;5074976;28;1122;-40
2022/03/09 08:43:28;;;;;;;;;;;;;;;28.97;17.30;100891.59;5076414;28;1898;-37
2022/03/09 08:45:53;;;;;;;;;;;;;;;28.73;17.65;100891.72;5086098;28;1473;-39
2022/03/09 08:48:19;;;;;;;;;;;;;;;29.06;17.05;100898.53;5076924;28;816;-40
2022/03/09 08:50:44;;;;;;;;;;;;;;;29.29;17.01;100891.28;5076378;28;904;-40
2022/03/09 08:53:09;;;;;;;;;;;;;;;29.03;17.11;100900.81;5077090;28;911;-41
2022/03/09 08:55:34;;;;;;;;;;;;;;;29.34;16.77;100905.06;5076841;28;749;-41
2022/03/09 08:58:00;;;;;;;;;;;;;;;29.64;16.67;100907.66;5084760;28;877;-43
2022/03/09 09:00:25;;;;;;;;;;;;;;;29.85;16.35;100902.34;5094023;28;853;-42
2022/03/09 09:02:52;;;;;;;;;;;;;;;29.95;16.30;100913.69;5090968;28;1909;-41
2022/03/09 09:05:17;;;;;;;;;;;;;;;30.29;15.68;100911.22;5095852;28;1620;-48
2022/03/09 09:07:43;;;;;;;;;;;;;;;30.47;15.58;100909.81;5096101;28;1091;-41
2022/03/09 09:10:08;;;;;;;;;;;;;;;30.53;15.72;100909.84;5094227;28;768;-41
2022/03/09 09:12:33;;;;;;;;;;;;;;;29.69;16.16;100910.63;5095599;28;731;-40
2022/03/09 09:14:59;;;;;;;;;;;;;;;29.37;16.65;100907.41;5096147;28;893;-42
2022/03/09 09:17:24;;;;;;;;;;;;;;;29.96;16.16;100899.13;5076030;28;922;-42
2022/03/09 09:19:50;;;;;;;;;;;;;;;29.73;16.42;100902.91;5077633;28;936;-41
2022/03/09 09:22:15;;;;;;;;;;;;;;;29.58;16.72;100900.25;5080474;28;1906;-41
2022/03/09 09:24:40;;;;;;;;;;;;;;;29.53;15.89;100897.31;5099421;28;868;-41
2022/03/09 09:27:05;;;;;;;;;;;;;;;29.53;15.63;100903.56;5099558;28;816;-41
2022/03/09 09:29:31;;;;;;;;;;;;;;;28.95;16.56;100902.59;5100913;28;756;-41
2022/03/09 09:31:56;;;;;;;;;;;;;;;29.53;16.45;100897.31;5083801;28;833;-38
2022/03/09 09:34:21;;;;;;;;;;;;;;;30.23;15.41;100915.56;5080104;28;821;-41
2022/03/09 09:36:47;;;;;;;;;;;;;;;30.40;15.50;100909.78;5078521;28;838;-46
2022/03/09 09:39:13;;;;;;;;;;;;;;;30.67;15.05;100909.91;5099575;28;909;-47
2022/03/09 09:41:40;;;;;;;;;;;;;;;30.25;15.43;100909.94;5099760;28;1901;-44
2022/03/09 09:44:06;;;;;;;;;;;;;;;29.94;15.85;100912.88;5099727;28;864;-39
2022/03/09 09:46:31;;;;;;;;;;;;;;;29.81;16.00;100910.88;5071142;28;864;-41
2022/03/09 09:48:57;;;;;;;;;;;;;;;29.02;16.99;100912.66;5067791;28;808;-45
2022/03/09 09:51:22;;;;;;;;;;;;;;;29.43;16.60;100905.75;5099773;28;824;-41
2022/03/09 09:53:47;;;;;;;;;;;;;;;30.43;15.71;100906.66;5082447;28;1071;-40
2022/03/09 09:56:13;;;;;;;;;;;;;;;30.66;15.54;100913.69;5080039;28;742;-43
2022/03/09 09:58:40;;;;;;;;;;;;;;;30.82;15.40;100909.78;5080156;28;857;-43
2022/03/09 10:01:06;;;;;;;;;;;;;;;30.34;15.69;100916.88;5080120;28;850;-46
2022/03/09 10:03:31;;;;;;;;;;;;;;;30.27;15.91;100916.00;5098988;28;1956;-47
2022/03/09 10:05:56;;;;;;;;;;;;;;;29.23;16.39;100913.72;5099625;28;801;-41
2022/03/09 10:08:22;;;;;;;;;;;;;;;29.32;16.58;100915.25;5098901;28;1284;-42
2022/03/09 10:11:00;;;;;;;;;;;;;;;30.41;15.89;100919.63;5099144;28;809;-40
2022/03/09 10:13:29;;;;;;;;;;;;;;;30.64;15.53;100911.16;5095773;28;770;-41
2022/03/09 10:16:06;;;;;;;;;;;;;;;30.69;14.92;100915.97;5095031;28;917;-40
2022/03/09 10:18:31;;;;;;;;;;;;;;;30.22;15.45;100916.59;5098946;28;757;-41
2022/03/09 10:20:57;;;;;;;;;;;;;;;29.90;15.75;100914.28;5098669;28;889;-39
2022/03/09 10:23:22;;;;;;;;;;;;;;;29.18;16.29;100912.41;5080358;28;1977;-42
2022/03/09 10:25:48;;;;;;;;;;;;;;;28.76;16.75;100903.22;5093939;28;891;-48
2022/03/09 10:28:13;;;;;;;;;;;;;;;29.89;16.06;100904.50;5090177;28;822;-41
2022/03/09 10:30:39;;;;;;;;;;;;;;;30.17;15.80;100900.91;5092977;28;831;-43
2022/03/09 10:33:05;;;;;;;;;;;;;;;30.40;15.58;100904.38;5079437;28;897;-43
2022/03/09 10:35:30;;;;;;;;;;;;;;;30.21;15.91;100905.94;5079027;28;1143;-41
2022/03/09 10:37:56;;;;;;;;;;;;;;;29.85;16.08;100908.63;5079447;28;866;-40
2022/03/09 10:40:21;;;;;;;;;;;;;;;29.66;16.51;100908.28;5089851;28;890;-41
2022/03/09 10:42:47;;;;;;;;;;;;;;;30.10;16.16;100899.16;5098254;28;1897;-43
2022/03/09 10:45:13;;;;;;;;;;;;;;;30.35;16.15;100887.84;5098623;28;871;-42
2022/03/09 10:47:39;;;;;;;;;;;;;;;30.65;15.93;100891.09;5089766;28;1025;-41
2022/03/09 10:50:25;;;;;;;;;;;;;;;30.10;16.44;100896.47;5072153;28;791;-42
2022/03/09 10:52:54;;;;;;;;;;;;;;;30.03;16.32;100885.59;5080954;28;1254;-40
2022/03/09 10:55:19;;;;;;;;;;;;;;;30.38;16.59;100895.63;5098321;28;824;-47
2022/03/09 10:57:44;;;;;;;;;;;;;;;30.43;16.43;100891.22;5098290;28;775;-42
2022/03/09 11:00:10;;;;;;;;;;;;;;;30.70;16.29;100886.97;5098293;28;827;-47
2022/03/09 11:02:39;;;;;;;;;;;;;;;30.37;16.45;100883.91;5078296;28;1902;-46
2022/03/09 11:05:12;;;;;;;;;;;;;;;30.31;16.67;100890.16;5068981;28;806;-47
2022/03/09 11:07:38;;;;;;;;;;;;;;;30.55;16.69;100877.91;5097888;28;1033;-45
2022/03/09 11:10:04;;;;;;;;;;;;;;;30.67;16.56;100878.16;5098037;28;786;-44
2022/03/09 11:12:29;;;;;;;;;;;;;;;30.82;16.30;100873.63;5098690;28;769;-45
2022/03/09 11:14:54;;;;;;;;;;;;;;;29.98;16.22;100869.91;5079887;28;880;-47
2022/03/09 11:17:23;;;;;;;;;;;;;;;29.98;16.94;100880.75;5079229;28;954;-46
2022/03/09 11:19:48;;;;;;;;;;;;;;;30.27;16.69;100884.28;5097563;28;822;-45
2022/03/09 11:22:14;;;;;;;;;;;;;;;30.31;16.86;100884.72;5079782;28;1952;-46
2022/03/09 11:24:40;;;;;;;;;;;;;;;30.63;16.45;100878.78;5097579;28;815;-48
2022/03/09 11:27:07;;;;;;;;;;;;;;;30.49;17.25;100867.03;5097452;28;853;-45
2022/03/09 11:29:36;;;;;;;;;;;;;;;30.83;16.48;100880.75;5077542;28;838;-49
2022/03/09 11:32:03;;;;;;;;;;;;;;;30.87;16.47;100879.28;5085995;28;982;-46
2022/03/09 11:34:36;;;;;;;;;;;;;;;30.75;16.58;100879.84;5097180;28;797;-39
2022/03/09 11:37:21;;;;;;;;;;;;;;;30.23;16.98;100879.47;5097639;28;790;-45
2022/03/09 11:39:48;;;;;;;;;;;;;;;30.16;16.96;100893.78;5082815;28;1848;-47
2022/03/09 11:42:22;;;;;;;;;;;;;;;30.13;17.33;100886.03;5073460;28;1898;-43
2022/03/09 11:44:47;;;;;;;;;;;;;;;29.65;17.93;100884.06;5093967;28;884;-42
2022/03/09 11:47:13;;;;;;;;;;;;;;;29.54;17.94;100891.69;5088649;28;855;-45
2022/03/09 11:49:50;;;;;;;;;;;;;;;30.04;17.57;100887.25;5081075;28;973;-42
2022/03/09 11:52:15;;;;;;;;;;;;;;;30.42;17.23;100886.84;5077400;28;889;-43
2022/03/09 11:54:41;;;;;;;;;;;;;;;30.41;17.38;100890.59;5077386;28;766;-48
2022/03/09 11:57:07;;;;;;;;;;;;;;;30.58;17.00;100886.72;5094471;28;951;-41
2022/03/09 11:59:32;;;;;;;;;;;;;;;30.70;16.67;100889.69;5097080;28;814;-43
2022/03/09 12:01:58;;;;;;;;;;;;;;;30.07;16.00;100892.28;5080587;28;1898;-41
2022/03/09 12:04:51;;;;;;;;;;;;;;;29.67;16.23;100892.84;5077227;28;830;-46
2022/03/09 12:07:33;;;;;;;;;;;;;;;30.25;16.78;100896.34;5071834;28;1218;-46
2022/03/09 12:09:59;;;;;;;;;;;;;;;30.18;16.76;100896.28;5073860;28;802;-48
2022/03/09 12:12:25;;;;;;;;;;;;;;;30.34;16.76;100902.47;5077519;28;761;-47
2022/03/09 12:15:04;;;;;;;;;;;;;;;30.55;16.46;100898.78;5077494;28;903;-42
2022/03/09 12:17:32;;;;;;;;;;;;;;;30.76;16.54;100888.84;5081189;28;974;-42
2022/03/09 12:20:17;;;;;;;;;;;;;;;30.94;16.35;100901.03;5096784;28;788;-44
2022/03/09 12:23:00;;;;;;;;;;;;;;;30.84;16.40;100893.28;5070191;28;1968;-43
2022/03/09 12:25:45;;;;;;;;;;;;;;;30.60;16.72;100895.47;5076729;28;1009;-46
2022/03/09 12:28:25;;;;;;;;;;;;;;;30.80;16.44;100895.56;5076684;28;1406;-43
2022/03/09 12:30:52;;;;;;;;;;;;;;;30.81;16.18;100899.13;5073805;28;741;-43
2022/03/09 12:33:28;;;;;;;;;;;;;;;30.70;16.68;100895.09;5088817;28;849;-43
2022/03/09 12:35:53;;;;;;;;;;;;;;;30.66;16.72;100889.25;5071303;28;735;-45
2022/03/09 12:38:19;;;;;;;;;;;;;;;30.39;17.23;100898.13;5077095;28;761;-44
2022/03/09 12:40:47;;;;;;;;;;;;;;;30.41;16.81;100898.72;5076438;28;846;-42
2022/03/09 12:43:15;;;;;;;;;;;;;;;30.96;16.78;100899.78;5076891;28;1902;-43
2022/03/09 12:45:51;;;;;;;;;;;;;;;30.70;16.77;100898.63;5068231;28;782;-46
2022/03/09 12:48:19;;;;;;;;;;;;;;;30.54;17.07;100899.84;5071362;28;869;-47
2022/03/09 12:50:44;;;;;;;;;;;;;;;30.60;17.16;100903.59;5076863;28;1084;-49